createdAt,value
2018-01-23T00:00:22.999Z,24.57
2018-01-23T00:02:50.459Z,23.20
2018-01-23T00:05:17.935Z,21.80
2018-01-23T00:07:45.391Z,16.23
2018-01-23T00:10:12.864Z,22.20
2018-01-23T00:12:40.323Z,19.83
2018-01-23T00:15:07.810Z,19.10
2018-01-23T00:17:35.272Z,22.60
2018-01-23T00:20:02.734Z,20.27
2018-01-23T00:22:30.260Z,23.57
2018-01-23T00:24:57.728Z,19.07
2018-01-23T00:27:25.208Z,22.60
2018-01-23T00:29:52.672Z,21.80
2018-01-23T00:32:20.143Z,15.60
2018-01-23T00:34:47.601Z,23.17
2018-01-23T00:37:15.084Z,22.23
2018-01-23T00:39:42.542Z,18.57
2018-01-23T00:42:10.043Z,21.60
2018-01-23T00:44:37.514Z,24.20
2018-01-23T00:47:04.998Z,18.80
2018-01-23T00:49:32.468Z,18.43
2018-01-23T00:51:59.943Z,20.33
2018-01-23T00:54:28.283Z,22.87
2018-01-23T00:56:55.764Z,20.93
2018-01-23T00:59:23.219Z,20.93
2018-01-23T01:01:50.699Z,22.07
2018-01-23T01:04:18.158Z,20.50
2018-01-23T01:06:45.636Z,19.03
2018-01-23T01:09:13.097Z,27.87
2018-01-23T01:11:40.584Z,14.77
2018-01-23T01:14:08.042Z,24.47
2018-01-23T01:16:35.519Z,15.57
2018-01-23T01:19:02.981Z,20.83
2018-01-23T01:21:30.468Z,17.30
2018-01-23T01:23:57.924Z,19.60
2018-01-23T01:26:25.406Z,15.70
2018-01-23T01:28:52.870Z,19.63
2018-01-23T01:31:20.365Z,21.93
2018-01-23T01:33:47.823Z,21.80
2018-01-23T01:36:15.299Z,15.83
2018-01-23T01:38:42.759Z,19.80
2018-01-23T01:41:10.249Z,17.67
2018-01-23T01:43:37.717Z,16.80
2018-01-23T01:46:05.176Z,15.37
2018-01-23T01:48:44.463Z,16.57
2018-01-23T01:51:11.926Z,20.50
2018-01-23T01:53:43.028Z,17.70
2018-01-23T01:56:10.483Z,21.37
2018-01-23T01:58:37.959Z,16.70
2018-01-23T02:01:05.410Z,22.53
2018-01-23T02:03:32.887Z,16.20
2018-01-23T02:06:00.356Z,18.67
2018-01-23T02:08:27.879Z,17.40
2018-01-23T02:10:55.335Z,20.33
2018-01-23T02:13:22.830Z,18.07
2018-01-23T02:15:50.286Z,11.47
2018-01-23T02:18:18.563Z,13.13
2018-01-23T02:20:46.023Z,22.00
2018-01-23T02:23:13.493Z,17.27
2018-01-23T02:25:40.953Z,14.97
2018-01-23T02:28:08.436Z,15.73
2018-01-23T02:30:35.979Z,21.40
2018-01-23T02:33:03.457Z,18.27
2018-01-23T02:35:30.922Z,15.23
2018-01-23T02:37:58.398Z,15.97
2018-01-23T02:40:25.865Z,15.57
2018-01-23T02:42:53.339Z,14.43
2018-01-23T02:45:20.798Z,13.27
2018-01-23T02:47:48.270Z,11.67
2018-01-23T02:50:15.739Z,14.67
2018-01-23T02:52:43.215Z,16.93
2018-01-23T02:55:10.672Z,20.63
2018-01-23T02:57:38.149Z,14.53
2018-01-23T03:00:05.611Z,19.60
2018-01-23T03:02:33.096Z,17.80
2018-01-23T03:05:00.847Z,15.83
2018-01-23T03:07:28.671Z,16.53
2018-01-23T03:09:56.141Z,15.93
2018-01-23T03:12:23.631Z,15.27
2018-01-23T03:14:52.313Z,20.77
2018-01-23T03:17:20.681Z,12.50
2018-01-23T03:19:48.186Z,14.37
2018-01-23T03:22:16.080Z,17.40
2018-01-23T03:24:43.586Z,12.77
2018-01-23T03:27:11.046Z,17.50
2018-01-23T03:29:38.663Z,15.33
2018-01-23T03:32:06.683Z,15.93
2018-01-23T03:34:34.158Z,14.37
2018-01-23T03:37:01.643Z,12.53
2018-01-23T03:39:29.530Z,14.43
2018-01-23T03:41:57.038Z,17.77
2018-01-23T03:44:24.575Z,15.73
2018-01-23T03:46:53.054Z,12.83
2018-01-23T03:49:20.886Z,15.07
2018-01-23T03:51:48.374Z,13.13
2018-01-23T03:54:15.878Z,16.00
2018-01-23T03:56:43.363Z,13.40
2018-01-23T03:59:11.602Z,14.63
2018-01-23T04:01:39.322Z,15.80
2018-01-23T04:04:07.030Z,18.50
2018-01-23T04:06:34.790Z,17.13
2018-01-23T04:09:02.303Z,17.83
2018-01-23T04:11:29.760Z,21.97
2018-01-23T04:13:57.287Z,14.43
2018-01-23T04:16:24.739Z,16.63
2018-01-23T04:18:52.254Z,13.03
2018-01-23T04:21:19.706Z,11.53
2018-01-23T04:23:47.559Z,14.93
2018-01-23T04:26:15.058Z,17.57
2018-01-23T04:28:42.535Z,12.30
2018-01-23T04:31:10.016Z,16.03
2018-01-23T04:33:37.554Z,13.17
2018-01-23T04:36:05.439Z,15.27
2018-01-23T04:38:33.175Z,13.73
2018-01-23T04:41:00.697Z,16.63
2018-01-23T04:43:28.165Z,14.40
2018-01-23T04:45:56.391Z,13.07
2018-01-23T04:48:23.842Z,18.73
2018-01-23T04:50:51.325Z,18.43
2018-01-23T04:53:19.080Z,15.27
2018-01-23T04:55:46.551Z,16.50
2018-01-23T04:58:14.266Z,15.77
2018-01-23T05:00:42.338Z,16.13
2018-01-23T05:03:09.839Z,15.57
2018-01-23T05:05:37.381Z,17.30
2018-01-23T05:08:05.646Z,16.10
2018-01-23T05:10:33.366Z,18.17
2018-01-23T05:13:00.853Z,19.03
2018-01-23T05:15:28.651Z,23.93
2018-01-23T05:17:56.504Z,14.70
2018-01-23T05:20:24.378Z,15.20
2018-01-23T05:22:51.848Z,18.83
2018-01-23T05:25:19.356Z,15.63
2018-01-23T05:27:47.210Z,19.47
2018-01-23T05:30:14.763Z,16.30
2018-01-23T05:32:42.657Z,16.07
2018-01-23T05:35:10.151Z,16.60
2018-01-23T05:37:38.874Z,16.17
2018-01-23T05:40:06.413Z,12.63
2018-01-23T05:42:34.754Z,14.93
2018-01-23T05:45:02.226Z,15.73
2018-01-23T05:47:30.185Z,14.70
2018-01-23T05:49:57.700Z,13.17
2018-01-23T05:52:25.168Z,14.13
2018-01-23T05:54:52.708Z,15.23
2018-01-23T05:57:20.510Z,15.20
2018-01-23T05:59:47.984Z,15.70
2018-01-23T06:02:15.892Z,20.13
2018-01-23T06:04:44.275Z,16.93
2018-01-23T06:07:12.131Z,18.27
2018-01-23T06:09:40.594Z,15.10
2018-01-23T06:12:08.083Z,18.10
2018-01-23T06:14:36.309Z,15.83
2018-01-23T06:17:04.064Z,17.93
2018-01-23T06:19:31.550Z,17.10
2018-01-23T06:21:59.871Z,21.60
2018-01-23T06:24:27.355Z,19.30
2018-01-23T06:26:54.842Z,17.50
2018-01-23T06:29:22.680Z,19.80
2018-01-23T06:31:50.219Z,18.57
2018-01-23T06:34:17.714Z,12.20
2018-01-23T06:36:45.214Z,17.50
2018-01-23T06:39:12.971Z,13.47
2018-01-23T06:41:40.834Z,18.07
2018-01-23T06:44:08.310Z,16.23
2018-01-23T06:46:35.791Z,17.93
2018-01-23T06:49:03.507Z,14.13
2018-01-23T06:51:30.991Z,12.70
2018-01-23T06:53:58.759Z,15.80
2018-01-23T06:56:26.588Z,12.87
2018-01-23T06:58:54.434Z,17.10
2018-01-23T07:01:21.942Z,14.63
2018-01-23T07:03:49.747Z,17.47
2018-01-23T07:06:17.262Z,14.90
2018-01-23T07:08:44.738Z,13.57
2018-01-23T07:11:12.258Z,13.13
2018-01-23T07:13:40.203Z,17.67
2018-01-23T07:16:07.916Z,10.73
2018-01-23T07:18:35.408Z,13.30
2018-01-23T07:21:03.368Z,10.70
2018-01-23T07:23:31.286Z,15.27
2018-01-23T07:25:58.999Z,15.10
2018-01-23T07:28:27.812Z,11.17
2018-01-23T07:30:56.346Z,14.23
2018-01-23T07:33:23.806Z,12.53
2018-01-23T07:35:51.763Z,13.17
2018-01-23T07:38:19.247Z,13.47
2018-01-23T07:40:50.738Z,16.40
2018-01-23T07:43:18.469Z,12.63
2018-01-23T07:45:45.965Z,13.97
2018-01-23T07:48:13.728Z,12.33
2018-01-23T07:50:41.222Z,13.50
2018-01-23T07:53:08.773Z,10.93
2018-01-23T07:55:36.268Z,15.20
2018-01-23T07:58:04.027Z,13.33
2018-01-23T08:00:31.495Z,14.43
2018-01-23T08:02:58.974Z,13.60
2018-01-23T08:05:26.474Z,13.03
2018-01-23T08:07:54.282Z,13.73
2018-01-23T08:10:21.954Z,14.43
2018-01-23T08:12:50.830Z,14.53
2018-01-23T08:15:18.286Z,19.30
2018-01-23T08:17:45.802Z,12.90
2018-01-23T08:20:13.490Z,15.40
2018-01-23T08:22:41.358Z,13.30
2018-01-23T08:25:09.244Z,15.50
2018-01-23T08:27:36.977Z,13.27
2018-01-23T08:30:05.730Z,15.63
2018-01-23T08:32:33.217Z,16.63
2018-01-23T08:35:00.682Z,15.37
2018-01-23T08:37:28.199Z,14.73
2018-01-23T08:39:55.692Z,12.23
2018-01-23T08:42:23.190Z,13.83
2018-01-23T08:44:51.291Z,15.63
2018-01-23T08:47:19.075Z,17.10
2018-01-23T08:49:47.330Z,14.77
2018-01-23T08:52:15.154Z,20.07
2018-01-23T08:54:42.675Z,17.63
2018-01-23T08:57:10.180Z,16.80
2018-01-23T08:59:37.714Z,18.50
2018-01-23T09:02:05.562Z,12.17
2018-01-23T09:04:33.059Z,15.67
2018-01-23T09:07:00.905Z,20.53
2018-01-23T09:09:28.413Z,22.77
2018-01-23T09:11:55.902Z,15.37
2018-01-23T09:14:23.358Z,11.43
2018-01-23T09:16:51.054Z,14.07
2018-01-23T09:19:18.566Z,12.40
2018-01-23T09:21:46.083Z,14.50
2018-01-23T09:24:13.818Z,16.10
2018-01-23T09:26:41.272Z,13.80
2018-01-23T09:29:08.744Z,14.23
2018-01-23T09:31:36.208Z,12.70
2018-01-23T09:34:03.945Z,12.63
2018-01-23T09:36:32.271Z,12.53
2018-01-23T09:39:01.106Z,14.10
2018-01-23T09:41:28.581Z,13.63
2018-01-23T09:43:56.078Z,10.63
2018-01-23T09:46:23.899Z,10.00
2018-01-23T09:48:51.435Z,11.23
2018-01-23T09:51:18.918Z,13.53
2018-01-23T09:53:46.400Z,13.87
2018-01-23T09:56:14.190Z,10.40
2018-01-23T09:58:41.690Z,13.73
2018-01-23T10:01:09.139Z,8.97
2018-01-23T10:03:36.846Z,9.70
2018-01-23T10:06:04.821Z,10.80
2018-01-23T10:08:33.085Z,10.67
2018-01-23T10:11:01.520Z,10.93
2018-01-23T10:13:29.346Z,8.33
2018-01-23T10:15:56.799Z,9.70
2018-01-23T10:20:57.362Z,10.53
2018-01-23T10:23:24.847Z,11.40
2018-01-23T10:25:52.312Z,11.27
2018-01-23T10:28:19.782Z,8.00
2018-01-23T10:30:47.247Z,10.03
2018-01-23T10:33:14.725Z,11.37
2018-01-23T10:35:42.178Z,8.07
2018-01-23T10:38:09.663Z,9.10
2018-01-23T10:40:37.120Z,11.93
2018-01-23T10:43:04.595Z,7.87
2018-01-23T10:45:32.056Z,10.33
2018-01-23T10:47:59.509Z,9.13
2018-01-23T10:50:26.990Z,12.07
2018-01-23T10:52:54.451Z,9.77
2018-01-23T10:55:21.933Z,10.53
2018-01-23T10:57:49.395Z,11.67
2018-01-23T11:00:16.866Z,10.10
2018-01-23T11:02:44.325Z,13.77
2018-01-23T11:05:11.805Z,7.87
2018-01-23T11:07:39.267Z,11.03
2018-01-23T11:10:06.752Z,10.07
2018-01-23T11:12:34.214Z,8.23
2018-01-23T11:15:01.692Z,11.67
2018-01-23T11:17:29.163Z,12.77
2018-01-23T11:19:56.640Z,13.77
2018-01-23T11:22:24.098Z,9.97
2018-01-23T11:24:51.570Z,7.63
2018-01-23T11:27:19.043Z,9.13
2018-01-23T11:29:46.522Z,16.10
2018-01-23T11:32:14.017Z,7.83
2018-01-23T11:34:41.479Z,8.37
2018-01-23T11:37:08.939Z,10.87
2018-01-23T11:39:36.416Z,8.10
2018-01-23T11:42:03.874Z,10.80
2018-01-23T11:44:31.355Z,6.87
2018-01-23T11:46:58.811Z,8.33
2018-01-23T11:49:26.290Z,10.03
2018-01-23T11:51:53.751Z,14.00
2018-01-23T11:54:21.235Z,10.13
2018-01-23T11:56:48.706Z,11.30
2018-01-23T11:59:16.178Z,6.73
2018-01-23T12:01:43.638Z,11.13
2018-01-23T12:04:11.115Z,13.30
2018-01-23T12:06:38.646Z,9.03
2018-01-23T12:09:06.119Z,9.70
2018-01-23T12:11:33.573Z,7.73
2018-01-23T12:14:01.026Z,8.07
2018-01-23T12:16:28.502Z,9.03
2018-01-23T12:18:55.962Z,8.23
2018-01-23T12:21:23.439Z,7.17
2018-01-23T12:23:50.903Z,5.73
2018-01-23T12:26:18.379Z,9.17
2018-01-23T12:28:45.834Z,6.83
2018-01-23T12:31:13.307Z,6.53
2018-01-23T12:33:40.766Z,6.70
2018-01-23T12:36:08.243Z,6.90
2018-01-23T12:38:35.699Z,7.17
2018-01-23T12:41:03.524Z,7.27
2018-01-23T12:43:31.912Z,7.83
2018-01-23T12:45:59.388Z,6.03
2018-01-23T12:48:27.532Z,6.03
2018-01-23T12:50:55.274Z,5.47
2018-01-23T12:53:22.858Z,6.13
2018-01-23T12:55:51.682Z,6.10
2018-01-23T12:58:19.180Z,6.23
2018-01-23T13:00:48.218Z,7.77
2018-01-23T13:03:15.813Z,7.13
2018-01-23T13:05:43.292Z,7.87
2018-01-23T13:08:10.746Z,7.20
2018-01-23T13:10:38.223Z,7.70
2018-01-23T13:13:05.684Z,5.37
2018-01-23T13:15:33.567Z,7.33
2018-01-23T13:18:01.037Z,6.57
2018-01-23T13:20:28.513Z,6.83
2018-01-23T13:22:55.975Z,5.70
2018-01-23T13:25:23.446Z,6.73
2018-01-23T13:27:50.903Z,6.47
2018-01-23T13:30:18.378Z,6.63
2018-01-23T13:32:45.839Z,9.73
2018-01-23T13:35:13.315Z,7.17
2018-01-23T13:37:40.774Z,6.37
2018-01-23T13:40:08.227Z,6.00
2018-01-23T13:42:35.712Z,6.57
2018-01-23T13:45:03.180Z,5.40
2018-01-23T13:47:30.658Z,7.67
2018-01-23T13:49:58.110Z,8.23
2018-01-23T13:52:25.624Z,8.23
2018-01-23T13:54:53.079Z,4.70
2018-01-23T13:57:20.558Z,8.57
2018-01-23T13:59:48.018Z,4.80
2018-01-23T14:02:15.491Z,6.93
2018-01-23T14:04:42.938Z,5.50
2018-01-23T14:07:10.411Z,6.37
2018-01-23T14:09:37.871Z,6.53
2018-01-23T14:12:05.342Z,4.37
2018-01-23T14:14:32.800Z,3.57
2018-01-23T14:16:59.573Z,5.47
2018-01-23T14:19:27.024Z,6.30
2018-01-23T14:21:54.515Z,7.80
2018-01-23T14:24:21.974Z,3.10
2018-01-23T14:26:49.450Z,7.43
2018-01-23T14:29:16.903Z,6.03
2018-01-23T14:31:44.379Z,5.43
2018-01-23T14:34:11.843Z,5.20
2018-01-23T14:36:39.330Z,4.80
2018-01-23T14:39:06.791Z,3.97
2018-01-23T14:41:34.271Z,2.20
2018-01-23T14:44:01.981Z,5.20
2018-01-23T14:46:29.454Z,5.70
2018-01-23T14:48:56.959Z,4.43
2018-01-23T14:51:24.496Z,5.77
2018-01-23T14:53:51.958Z,7.80
2018-01-23T14:56:19.804Z,7.37
2018-01-23T14:58:47.343Z,7.93
2018-01-23T15:01:14.865Z,6.43
2018-01-23T15:03:42.629Z,7.27
2018-01-23T15:06:10.088Z,6.70
2018-01-23T15:08:37.783Z,6.50
2018-01-23T15:11:05.266Z,7.37
2018-01-23T15:13:33.175Z,3.97
2018-01-23T15:16:02.098Z,4.13
2018-01-23T15:18:29.651Z,5.97
2018-01-23T15:20:57.202Z,4.40
2018-01-23T15:23:24.754Z,4.83
2018-01-23T15:25:52.475Z,4.67
2018-01-23T15:28:19.978Z,4.20
2018-01-23T15:30:48.334Z,9.00
2018-01-23T15:33:15.814Z,10.37
2018-01-23T15:35:43.355Z,4.07
2018-01-23T15:38:10.846Z,7.83
2018-01-23T15:40:38.367Z,7.37
2018-01-23T15:43:05.835Z,7.17
2018-01-23T15:45:33.290Z,4.47
2018-01-23T15:48:00.823Z,3.90
2018-01-23T15:50:29.654Z,3.03
2018-01-23T15:52:57.600Z,5.63
2018-01-23T15:55:25.101Z,4.23
2018-01-23T15:57:52.884Z,5.07
2018-01-23T16:00:21.358Z,4.27
2018-01-23T16:02:48.876Z,4.43
2018-01-23T16:05:16.705Z,5.60
2018-01-23T16:07:44.591Z,6.10
2018-01-23T16:10:12.044Z,4.93
2018-01-23T16:12:39.734Z,5.87
2018-01-23T16:15:07.214Z,4.43
2018-01-23T16:17:34.990Z,5.40
2018-01-23T16:20:02.772Z,3.73
2018-01-23T16:22:30.312Z,4.73
2018-01-23T16:24:57.755Z,4.97
2018-01-23T16:27:25.487Z,6.23
2018-01-23T16:29:53.286Z,3.30
2018-01-23T16:32:20.759Z,4.07
2018-01-23T16:34:49.055Z,5.50
2018-01-23T16:37:17.283Z,9.47
2018-01-23T16:39:45.069Z,8.23
2018-01-23T16:42:12.563Z,3.90
2018-01-23T16:44:40.098Z,6.30
2018-01-23T16:47:07.626Z,4.03
2018-01-23T16:49:35.158Z,6.93
2018-01-23T16:52:02.643Z,9.13
2018-01-23T16:54:31.168Z,3.93
2018-01-23T16:56:58.651Z,2.53
2018-01-23T16:59:26.173Z,3.93
2018-01-23T17:01:54.054Z,4.27
2018-01-23T17:04:21.945Z,4.77
2018-01-23T17:06:49.709Z,5.00
2018-01-23T17:09:17.282Z,4.60
2018-01-23T17:11:44.735Z,8.47
2018-01-23T17:14:12.348Z,5.83
2018-01-23T17:16:40.781Z,6.60
2018-01-23T17:19:09.638Z,6.43
2018-01-23T17:21:38.515Z,5.70
2018-01-23T17:24:06.255Z,4.43
2018-01-23T17:26:34.115Z,10.30
2018-01-23T17:29:02.096Z,5.17
2018-01-23T17:31:30.210Z,8.53
2018-01-23T17:33:57.726Z,5.03
2018-01-23T17:36:25.672Z,5.30
2018-01-23T17:38:53.533Z,5.70
2018-01-23T17:41:21.132Z,4.83
2018-01-23T17:43:49.766Z,4.03
2018-01-23T17:46:18.274Z,5.23
2018-01-23T17:48:46.210Z,8.20
2018-01-23T17:51:14.063Z,3.80
2018-01-23T17:53:41.883Z,4.30
2018-01-23T17:56:10.214Z,5.37
2018-01-23T17:58:38.032Z,5.07
2018-01-23T18:01:05.839Z,4.87
2018-01-23T18:03:33.336Z,5.53
2018-01-23T18:06:01.175Z,3.97
2018-01-23T18:08:30.009Z,4.70
2018-01-23T18:10:57.866Z,4.93
2018-01-23T18:13:25.367Z,5.67
2018-01-23T18:15:52.920Z,6.10
2018-01-23T18:18:21.037Z,5.43
2018-01-23T18:20:48.939Z,6.83
2018-01-23T18:23:16.472Z,5.67
2018-01-23T18:25:44.079Z,7.80
2018-01-23T18:28:13.680Z,5.57
2018-01-23T18:30:43.271Z,5.17
2018-01-23T18:33:11.282Z,8.63
2018-01-23T18:35:39.655Z,4.40
2018-01-23T18:38:07.187Z,4.30
2018-01-23T18:40:36.111Z,6.63
2018-01-23T18:43:05.595Z,4.43
2018-01-23T18:45:34.187Z,5.90
2018-01-23T18:50:33.844Z,3.53
2018-01-23T18:53:01.400Z,5.20
2018-01-23T18:55:28.977Z,3.60
2018-01-23T18:57:56.556Z,2.93
2018-01-23T19:00:24.170Z,4.17
2018-01-23T19:02:51.785Z,4.37
2018-01-23T19:05:19.326Z,9.87
2018-01-23T19:07:46.811Z,3.00
2018-01-23T19:10:14.287Z,4.30
2018-01-23T19:12:41.742Z,3.63
2018-01-23T19:15:09.711Z,4.23
2018-01-23T19:17:37.167Z,4.57
2018-01-23T19:20:04.650Z,5.87
2018-01-23T19:22:32.107Z,5.90
2018-01-23T19:24:59.577Z,7.13
2018-01-23T19:27:27.026Z,6.10
2018-01-23T19:29:54.502Z,5.07
2018-01-23T19:32:21.964Z,5.63
2018-01-23T19:34:49.720Z,7.07
2018-01-23T19:37:17.581Z,4.80
2018-01-23T19:39:45.099Z,4.90
2018-01-23T19:42:12.561Z,3.67
2018-01-23T19:44:40.002Z,4.63
2018-01-23T19:47:07.475Z,5.20
2018-01-23T19:49:34.938Z,5.27
2018-01-23T19:52:02.407Z,3.37
2018-01-23T19:54:29.871Z,3.33
2018-01-23T19:56:57.338Z,5.17
2018-01-23T19:59:24.822Z,5.67
2018-01-23T20:01:52.298Z,4.80
2018-01-23T20:04:19.863Z,3.10
2018-01-23T20:06:47.375Z,3.40
2018-01-23T20:09:14.826Z,2.87
2018-01-23T20:11:42.863Z,2.77
2018-01-23T20:14:10.318Z,2.57
2018-01-23T20:16:37.789Z,2.80
2018-01-23T20:19:05.254Z,4.37
2018-01-23T20:21:32.718Z,2.77
2018-01-23T20:24:00.166Z,2.47
2018-01-23T20:26:27.692Z,3.00
2018-01-23T20:28:55.241Z,3.97
2018-01-23T20:31:22.719Z,3.20
2018-01-23T20:33:50.179Z,2.30
2018-01-23T20:36:17.679Z,2.93
2018-01-23T20:38:45.143Z,2.10
2018-01-23T20:41:12.627Z,2.00
2018-01-23T20:43:40.079Z,1.93
2018-01-23T20:46:07.559Z,3.63
2018-01-23T20:48:35.020Z,1.90
2018-01-23T20:51:02.506Z,1.53
2018-01-23T20:53:29.958Z,1.60
2018-01-23T20:55:57.522Z,1.70
2018-01-23T20:58:24.985Z,3.43
2018-01-23T21:00:52.457Z,3.00
2018-01-23T21:03:19.915Z,1.40
2018-01-23T21:05:47.400Z,1.73
2018-01-23T21:08:14.857Z,2.13
2018-01-23T21:10:42.306Z,1.63
2018-01-23T21:13:09.783Z,0.80
2018-01-23T21:15:37.244Z,1.10
2018-01-23T21:18:04.714Z,1.47
2018-01-23T21:20:32.168Z,1.47
2018-01-23T21:22:59.647Z,0.83
2018-01-23T21:25:27.114Z,1.17
2018-01-23T21:27:54.586Z,0.93
2018-01-23T21:30:22.044Z,0.60
2018-01-23T21:32:49.519Z,0.63
2018-01-23T21:35:16.966Z,0.57
2018-01-23T21:37:44.440Z,0.70
2018-01-23T21:40:11.892Z,0.60
2018-01-23T21:42:39.362Z,1.20
2018-01-23T21:45:06.823Z,0.60
2018-01-23T21:47:44.835Z,0.67
2018-01-23T21:50:12.295Z,1.70
2018-01-23T21:52:39.775Z,1.80
2018-01-23T21:55:07.231Z,0.60
2018-01-23T21:57:34.706Z,0.50
2018-01-23T22:00:02.160Z,0.53
2018-01-23T22:02:29.638Z,1.37
2018-01-23T22:04:57.112Z,0.47
2018-01-23T22:07:24.594Z,0.20
2018-01-23T22:09:52.071Z,0.40
2018-01-23T22:12:19.550Z,0.40
2018-01-23T22:14:47.002Z,0.20
2018-01-23T22:17:14.478Z,0.63
2018-01-23T22:19:41.939Z,0.40
2018-01-23T22:22:09.427Z,0.43
2018-01-23T22:24:36.885Z,1.03
2018-01-23T22:27:04.355Z,0.50
2018-01-23T22:29:32.299Z,0.87
2018-01-23T22:31:59.778Z,0.60
2018-01-23T22:34:27.235Z,0.60
2018-01-23T22:36:54.708Z,1.10
2018-01-23T22:39:22.168Z,0.60
2018-01-23T22:41:49.631Z,0.70
2018-01-23T22:44:17.114Z,0.33
2018-01-23T22:46:44.570Z,0.50
2018-01-23T22:49:12.051Z,0.60
2018-01-23T22:51:39.507Z,1.37
2018-01-23T22:54:06.998Z,0.80
2018-01-23T22:56:34.450Z,0.60
2018-01-23T22:59:01.931Z,0.70
2018-01-23T23:01:29.387Z,1.10
2018-01-23T23:03:56.866Z,1.70
2018-01-23T23:06:24.327Z,1.33
2018-01-23T23:08:51.802Z,0.57
2018-01-23T23:11:19.265Z,0.77
2018-01-23T23:13:46.740Z,2.23
2018-01-23T23:16:14.199Z,0.40
2018-01-23T23:18:41.674Z,0.50
2018-01-23T23:21:09.130Z,0.30
2018-01-23T23:23:36.630Z,0.53
2018-01-23T23:26:04.107Z,0.30
2018-01-23T23:28:31.648Z,0.20
2018-01-23T23:30:59.107Z,0.10
2018-01-23T23:33:26.585Z,0.20
2018-01-23T23:35:54.042Z,0.23
2018-01-23T23:38:21.532Z,1.10
2018-01-23T23:40:48.990Z,1.80
2018-01-23T23:43:16.562Z,1.43
2018-01-23T23:45:44.062Z,0.73
2018-01-23T23:48:11.583Z,0.37
2018-01-23T23:50:39.048Z,0.40
2018-01-23T23:53:06.526Z,0.33
2018-01-23T23:55:34.822Z,0.30
2018-01-23T23:58:02.370Z,0.57
